createdAt,value
2018-03-31T00:00:30.796Z,-1.40
2018-03-31T00:02:57.102Z,-1.40
2018-03-31T00:05:23.336Z,-1.40
2018-03-31T00:07:50.328Z,-1.40
2018-03-31T00:10:16.657Z,-1.40
2018-03-31T00:12:42.985Z,-1.40
2018-03-31T00:15:09.688Z,-1.40
2018-03-31T00:17:35.933Z,-1.40
2018-03-31T00:20:02.869Z,-1.50
2018-03-31T00:22:29.850Z,-1.40
2018-03-31T00:24:56.083Z,-1.40
2018-03-31T00:27:23.058Z,-1.50
2018-03-31T00:29:49.257Z,-1.50
2018-03-31T00:32:15.438Z,-1.50
2018-03-31T00:34:41.641Z,-1.40
2018-03-31T00:37:08.137Z,-1.50
2018-03-31T00:39:34.339Z,-1.50
2018-03-31T00:42:01.285Z,-1.50
2018-03-31T00:44:28.501Z,-1.50
2018-03-31T00:46:54.698Z,-1.50
2018-03-31T00:49:20.887Z,-1.50
2018-03-31T00:51:47.221Z,-1.50
2018-03-31T00:54:13.416Z,-1.60
2018-03-31T00:56:39.691Z,-1.50
2018-03-31T00:59:06.207Z,-1.50
2018-03-31T01:01:32.439Z,-1.40
2018-03-31T01:03:58.656Z,-1.50
2018-03-31T01:06:24.977Z,-1.50
2018-03-31T01:08:51.273Z,-1.50
2018-03-31T01:11:17.529Z,-1.50
2018-03-31T01:13:43.862Z,-1.50
2018-03-31T01:16:10.072Z,-1.50
2018-03-31T01:18:36.313Z,-1.60
2018-03-31T01:21:02.534Z,-1.60
2018-03-31T01:23:28.688Z,-1.50
2018-03-31T01:25:54.859Z,-1.60
2018-03-31T01:28:21.093Z,-1.50
2018-03-31T01:30:47.304Z,-1.60
2018-03-31T01:33:14.230Z,-1.60
2018-03-31T01:35:40.545Z,-1.60
2018-03-31T01:38:06.718Z,-1.60
2018-03-31T01:40:32.980Z,-1.60
2018-03-31T01:42:59.324Z,-1.60
2018-03-31T01:45:26.249Z,-1.60
2018-03-31T01:47:52.397Z,-1.70
2018-03-31T01:50:18.676Z,-1.70
2018-03-31T01:52:45.640Z,-1.80
2018-03-31T01:55:11.851Z,-1.80
2018-03-31T01:57:38.064Z,-1.80
2018-03-31T02:00:04.250Z,-1.80
2018-03-31T02:02:30.442Z,-1.80
2018-03-31T02:04:56.689Z,-1.90
2018-03-31T02:07:22.902Z,-1.90
2018-03-31T02:09:49.112Z,-1.90
2018-03-31T02:12:16.096Z,-2.00
2018-03-31T02:14:42.290Z,-2.00
2018-03-31T02:17:08.485Z,-2.00
2018-03-31T02:19:35.012Z,-2.00
2018-03-31T02:22:01.300Z,-2.00
2018-03-31T02:24:27.466Z,-2.00
2018-03-31T02:26:54.034Z,-2.00
2018-03-31T02:29:20.253Z,-1.90
2018-03-31T02:31:46.435Z,-2.00
2018-03-31T02:34:12.769Z,-2.10
2018-03-31T02:36:38.957Z,-2.00
2018-03-31T02:39:05.907Z,-1.90
2018-03-31T02:41:32.194Z,-2.00
2018-03-31T02:43:58.435Z,-1.90
2018-03-31T02:46:24.716Z,-1.90
2018-03-31T02:48:51.265Z,-2.00
2018-03-31T02:51:17.467Z,-2.00
2018-03-31T02:53:43.687Z,-2.00
2018-03-31T02:56:09.947Z,-2.10
2018-03-31T02:58:36.191Z,-2.10
2018-03-31T03:01:02.378Z,-2.10
2018-03-31T03:03:28.684Z,-2.10
2018-03-31T03:05:54.905Z,-2.20
2018-03-31T03:08:21.154Z,-2.20
2018-03-31T03:10:47.379Z,-2.20
2018-03-31T03:13:13.627Z,-2.10
2018-03-31T03:15:39.909Z,-2.10
2018-03-31T03:18:06.182Z,-2.20
2018-03-31T03:20:32.426Z,-2.20
2018-03-31T03:22:58.610Z,-2.20
2018-03-31T03:25:25.161Z,-2.30
2018-03-31T03:27:52.219Z,-2.20
2018-03-31T03:30:19.145Z,-2.30
2018-03-31T03:32:46.296Z,-2.30
2018-03-31T03:35:13.240Z,-2.30
2018-03-31T03:37:39.383Z,-2.30
2018-03-31T03:40:05.616Z,-2.30
2018-03-31T03:42:32.610Z,-2.30
2018-03-31T03:44:58.768Z,-2.30
2018-03-31T03:47:26.189Z,-2.30
2018-03-31T03:49:52.413Z,-2.30
2018-03-31T03:52:18.755Z,-2.40
2018-03-31T03:54:45.341Z,-2.40
2018-03-31T03:57:12.262Z,-2.40
2018-03-31T03:59:38.469Z,-2.40
2018-03-31T04:02:04.727Z,-2.50
2018-03-31T04:04:31.021Z,-2.50
2018-03-31T04:06:57.305Z,-2.50
2018-03-31T04:09:24.060Z,-2.50
2018-03-31T04:11:50.250Z,-2.60
2018-03-31T04:14:16.455Z,-2.60
2018-03-31T04:16:42.729Z,-2.70
2018-03-31T04:19:09.662Z,-2.60
2018-03-31T04:21:35.945Z,-2.60
2018-03-31T04:24:02.306Z,-2.50
2018-03-31T04:26:28.499Z,-2.50
2018-03-31T04:28:54.673Z,-2.50
2018-03-31T04:31:22.083Z,-2.50
2018-03-31T04:33:48.272Z,-2.60
2018-03-31T04:36:14.507Z,-2.50
2018-03-31T04:38:41.053Z,-2.50
2018-03-31T04:41:07.191Z,-2.60
2018-03-31T04:43:34.192Z,-2.40
2018-03-31T04:46:01.233Z,-2.40
2018-03-31T04:48:27.474Z,-2.30
2018-03-31T04:50:53.724Z,-2.50
2018-03-31T04:53:20.308Z,-2.50
2018-03-31T04:55:46.528Z,-2.50
2018-03-31T04:58:12.812Z,-2.60
2018-03-31T05:00:39.030Z,-2.60
2018-03-31T05:03:05.319Z,-2.60
2018-03-31T05:05:31.574Z,-2.60
2018-03-31T05:07:57.868Z,-2.60
2018-03-31T05:10:24.036Z,-2.50
2018-03-31T05:12:50.272Z,-2.50
2018-03-31T05:15:16.517Z,-2.50
2018-03-31T05:17:42.681Z,-2.50
2018-03-31T05:20:16.065Z,-2.40
2018-03-31T05:22:42.378Z,-2.40
2018-03-31T05:25:08.661Z,-2.40
2018-03-31T05:27:34.995Z,-2.30
2018-03-31T05:30:01.217Z,-2.20
2018-03-31T05:32:27.424Z,-2.20
2018-03-31T05:34:55.230Z,-2.10
2018-03-31T05:37:21.387Z,-2.10
2018-03-31T05:39:47.553Z,-2.20
2018-03-31T05:42:13.759Z,-2.10
2018-03-31T05:44:40.726Z,-2.10
2018-03-31T05:47:06.934Z,-2.10
2018-03-31T05:49:33.944Z,-2.20
2018-03-31T05:52:00.226Z,-2.20
2018-03-31T05:54:27.139Z,-2.20
2018-03-31T05:56:53.527Z,-2.20
2018-03-31T05:59:19.725Z,-2.10
2018-03-31T06:01:46.809Z,-2.10
2018-03-31T06:04:13.025Z,-2.10
2018-03-31T06:06:39.205Z,-2.00
2018-03-31T06:09:05.557Z,-1.60
2018-03-31T06:11:31.777Z,-1.40
2018-03-31T06:13:57.941Z,-1.10
2018-03-31T06:16:24.148Z,-0.40
2018-03-31T06:18:51.546Z,1.60
2018-03-31T06:21:18.487Z,2.00
2018-03-31T06:23:44.858Z,2.00
2018-03-31T06:26:11.206Z,2.30
2018-03-31T06:28:37.389Z,2.60
2018-03-31T06:31:03.551Z,2.60
2018-03-31T06:33:29.804Z,3.20
2018-03-31T06:35:56.002Z,3.70
2018-03-31T06:38:22.171Z,4.00
2018-03-31T06:40:48.391Z,3.80
2018-03-31T06:43:14.552Z,4.70
2018-03-31T06:45:40.764Z,5.30
2018-03-31T06:48:07.021Z,5.60
2018-03-31T06:50:33.221Z,4.60
2018-03-31T06:52:59.421Z,4.80
2018-03-31T06:55:26.052Z,3.60
2018-03-31T06:57:52.305Z,2.40
2018-03-31T07:00:18.461Z,1.50
2018-03-31T07:02:45.270Z,1.10
2018-03-31T07:05:11.747Z,0.70
2018-03-31T07:07:37.921Z,0.60
2018-03-31T07:10:04.188Z,0.70
2018-03-31T07:12:31.190Z,1.10
2018-03-31T07:14:57.443Z,1.00
2018-03-31T07:17:24.556Z,1.40
2018-03-31T07:19:50.717Z,1.40
2018-03-31T07:22:16.921Z,1.30
2018-03-31T07:24:43.281Z,1.10
2018-03-31T07:27:09.500Z,1.10
2018-03-31T07:29:35.670Z,1.10
2018-03-31T07:32:01.898Z,1.30
2018-03-31T07:34:28.097Z,1.30
2018-03-31T07:36:54.374Z,1.30
2018-03-31T07:39:20.604Z,1.40
2018-03-31T07:41:46.808Z,1.40
2018-03-31T07:44:13.020Z,1.50
2018-03-31T07:46:39.633Z,1.70
2018-03-31T07:49:05.882Z,2.10
2018-03-31T07:51:32.103Z,2.20
2018-03-31T07:53:58.324Z,2.00
2018-03-31T07:56:25.289Z,2.80
2018-03-31T07:58:51.467Z,2.80
2018-03-31T08:01:18.006Z,3.20
2018-03-31T08:03:44.182Z,4.10
2018-03-31T08:06:11.153Z,4.40
2018-03-31T08:08:37.408Z,4.40
2018-03-31T08:11:03.754Z,4.50
2018-03-31T08:13:29.996Z,4.40
2018-03-31T08:15:56.942Z,4.90
2018-03-31T08:18:24.039Z,5.70
2018-03-31T08:20:50.260Z,5.70
2018-03-31T08:23:16.961Z,5.40
2018-03-31T08:25:44.053Z,4.90
2018-03-31T08:28:11.013Z,4.80
2018-03-31T08:30:38.355Z,4.90
2018-03-31T08:33:05.432Z,4.60
2018-03-31T08:35:31.738Z,4.60
2018-03-31T08:37:58.011Z,4.50
2018-03-31T08:40:25.111Z,3.70
2018-03-31T08:42:51.380Z,3.70
2018-03-31T08:45:17.699Z,4.10
2018-03-31T08:47:44.067Z,4.00
2018-03-31T08:50:11.699Z,3.80
2018-03-31T08:52:38.027Z,3.80
2018-03-31T08:55:04.246Z,3.80
2018-03-31T08:57:30.503Z,3.80
2018-03-31T08:59:56.809Z,4.10
2018-03-31T09:02:22.987Z,4.50
2018-03-31T09:04:49.924Z,4.20
2018-03-31T09:07:16.488Z,4.20
2018-03-31T09:09:42.765Z,4.20
2018-03-31T09:12:09.027Z,4.50
2018-03-31T09:14:35.380Z,4.50
2018-03-31T09:17:01.597Z,4.80
2018-03-31T09:19:28.515Z,4.70
2018-03-31T09:21:54.830Z,4.60
2018-03-31T09:24:21.832Z,4.70
2018-03-31T09:26:48.028Z,4.60
2018-03-31T09:29:15.157Z,4.50
2018-03-31T09:31:41.432Z,4.50
2018-03-31T09:34:08.592Z,4.20
2018-03-31T09:36:35.848Z,4.10
2018-03-31T09:39:03.310Z,4.10
2018-03-31T09:41:29.595Z,4.10
2018-03-31T09:43:55.836Z,4.40
2018-03-31T09:46:22.069Z,4.70
2018-03-31T09:48:48.445Z,4.60
2018-03-31T09:51:14.891Z,4.90
2018-03-31T09:53:41.208Z,4.90
2018-03-31T09:56:07.492Z,4.90
2018-03-31T09:58:34.756Z,5.30
2018-03-31T10:01:02.990Z,5.40
2018-03-31T10:03:29.376Z,5.50
2018-03-31T10:05:56.100Z,5.30
2018-03-31T10:08:22.589Z,5.20
2018-03-31T10:10:48.873Z,4.90
2018-03-31T10:13:15.580Z,5.20
2018-03-31T10:15:41.769Z,5.50
2018-03-31T10:18:08.051Z,5.50
2018-03-31T10:20:35.056Z,5.40
2018-03-31T10:23:01.295Z,5.40
2018-03-31T10:25:27.484Z,5.40
2018-03-31T10:27:53.781Z,5.60
2018-03-31T10:30:20.054Z,5.70
2018-03-31T10:32:46.242Z,5.90
2018-03-31T10:35:12.577Z,5.90
2018-03-31T10:37:38.835Z,5.80
2018-03-31T10:40:05.997Z,5.60
2018-03-31T10:42:32.340Z,5.60
2018-03-31T10:44:58.593Z,5.50
2018-03-31T10:47:24.964Z,5.70
2018-03-31T10:49:51.270Z,5.30
2018-03-31T10:52:17.954Z,5.10
2018-03-31T10:54:45.175Z,5.40
2018-03-31T10:57:11.394Z,5.40
2018-03-31T10:59:38.313Z,5.30
2018-03-31T11:02:04.538Z,5.30
2018-03-31T11:04:30.768Z,5.40
2018-03-31T11:06:56.953Z,5.30
2018-03-31T11:09:23.332Z,5.40
2018-03-31T11:11:49.981Z,5.40
2018-03-31T11:14:16.218Z,5.30
2018-03-31T11:16:43.187Z,5.10
2018-03-31T11:19:09.779Z,5.00
2018-03-31T11:21:35.971Z,5.30
2018-03-31T11:24:02.307Z,5.40
2018-03-31T11:26:28.913Z,5.40
2018-03-31T11:28:55.224Z,5.30
2018-03-31T11:31:21.538Z,5.30
2018-03-31T11:33:47.806Z,5.20
2018-03-31T11:36:14.817Z,5.20
2018-03-31T11:38:41.132Z,5.20
2018-03-31T11:41:08.187Z,5.40
2018-03-31T11:43:34.879Z,5.40
2018-03-31T11:46:02.869Z,5.20
2018-03-31T11:48:29.735Z,5.30
2018-03-31T11:50:56.023Z,5.30
2018-03-31T11:53:22.350Z,5.40
2018-03-31T11:55:48.582Z,5.50
2018-03-31T11:58:15.727Z,5.70
2018-03-31T12:00:42.041Z,5.80
2018-03-31T12:03:09.279Z,5.50
2018-03-31T12:05:35.519Z,5.50
2018-03-31T12:08:01.723Z,5.50
2018-03-31T12:10:28.018Z,5.60
2018-03-31T12:12:54.190Z,5.30
2018-03-31T12:15:20.397Z,5.70
2018-03-31T12:17:46.624Z,5.80
2018-03-31T12:20:12.869Z,5.90
2018-03-31T12:22:39.225Z,5.90
2018-03-31T12:25:06.234Z,5.50
2018-03-31T12:27:32.404Z,5.50
2018-03-31T12:29:59.310Z,5.50
2018-03-31T12:32:25.689Z,5.50
2018-03-31T12:34:52.700Z,5.60
2018-03-31T12:37:19.080Z,5.60
2018-03-31T12:39:46.025Z,6.90
2018-03-31T12:42:12.222Z,6.90
2018-03-31T12:44:38.482Z,7.50
2018-03-31T12:47:04.704Z,7.50
2018-03-31T12:49:31.787Z,8.30
2018-03-31T12:51:58.018Z,8.30
2018-03-31T12:54:24.277Z,8.60
2018-03-31T12:56:50.489Z,8.50
2018-03-31T12:59:16.714Z,8.60
2018-03-31T13:01:43.789Z,8.00
2018-03-31T13:04:10.062Z,7.90
2018-03-31T13:06:36.257Z,8.00
2018-03-31T13:09:03.350Z,8.20
2018-03-31T13:11:29.609Z,8.10
2018-03-31T13:13:56.380Z,7.90
2018-03-31T13:16:23.487Z,8.50
2018-03-31T13:18:49.729Z,8.50
2018-03-31T13:21:15.917Z,8.70
2018-03-31T13:23:42.320Z,8.80
2018-03-31T13:26:09.273Z,8.90
2018-03-31T13:28:36.209Z,8.70
2018-03-31T13:31:04.029Z,8.80
2018-03-31T13:33:30.317Z,8.80
2018-03-31T13:35:56.473Z,8.70
2018-03-31T13:38:22.792Z,8.80
2018-03-31T13:40:49.014Z,8.50
2018-03-31T13:43:15.996Z,7.60
2018-03-31T13:45:42.398Z,7.60
2018-03-31T13:48:08.744Z,8.20
2018-03-31T13:50:34.949Z,7.70
2018-03-31T13:53:01.576Z,7.70
2018-03-31T13:55:27.834Z,7.00
2018-03-31T13:57:54.434Z,6.80
2018-03-31T14:00:20.676Z,6.40
2018-03-31T14:02:47.692Z,6.10
2018-03-31T14:05:13.950Z,6.10
2018-03-31T14:07:40.211Z,5.90
2018-03-31T14:10:06.455Z,5.60
2018-03-31T14:12:32.705Z,5.60
2018-03-31T14:14:58.965Z,5.60
2018-03-31T14:17:26.070Z,5.90
2018-03-31T14:19:53.197Z,5.80
2018-03-31T14:22:19.687Z,5.80
2018-03-31T14:24:45.947Z,5.60
2018-03-31T14:27:12.191Z,5.40
2018-03-31T14:29:39.420Z,5.30
2018-03-31T14:32:05.665Z,5.30
2018-03-31T14:34:31.870Z,5.30
2018-03-31T14:36:58.355Z,5.50
2018-03-31T14:39:24.664Z,5.20
2018-03-31T14:41:50.973Z,4.90
2018-03-31T14:44:17.726Z,5.00
2018-03-31T14:46:44.537Z,5.00
2018-03-31T14:49:10.719Z,5.00
2018-03-31T14:51:37.792Z,5.10
2018-03-31T14:54:03.982Z,4.90
2018-03-31T14:56:30.183Z,5.00
2018-03-31T14:58:56.454Z,5.00
2018-03-31T15:01:22.840Z,4.80
2018-03-31T15:03:49.112Z,4.80
2018-03-31T15:06:15.365Z,4.70
2018-03-31T15:08:41.654Z,4.70
2018-03-31T15:11:07.915Z,4.80
2018-03-31T15:13:35.068Z,4.80
2018-03-31T15:16:01.336Z,4.70
2018-03-31T15:18:27.660Z,4.70
2018-03-31T15:20:53.935Z,4.60
2018-03-31T15:23:20.213Z,4.50
2018-03-31T15:25:47.886Z,4.50
2018-03-31T15:28:14.226Z,4.60
2018-03-31T15:30:40.418Z,4.60
2018-03-31T15:33:06.605Z,4.60
2018-03-31T15:35:32.879Z,4.40
2018-03-31T15:37:59.097Z,4.40
2018-03-31T15:40:26.305Z,4.40
2018-03-31T15:42:52.573Z,4.30
2018-03-31T15:45:19.626Z,4.40
2018-03-31T15:47:45.859Z,4.40
2018-03-31T15:50:12.129Z,4.30
2018-03-31T15:52:39.139Z,4.40
2018-03-31T15:55:05.416Z,4.40
2018-03-31T15:57:32.548Z,4.20
2018-03-31T15:59:58.829Z,4.10
2018-03-31T16:02:25.029Z,4.20
2018-03-31T16:04:51.981Z,4.20
2018-03-31T16:07:18.956Z,4.20
2018-03-31T16:09:45.193Z,4.20
2018-03-31T16:12:11.694Z,4.30
2018-03-31T16:14:37.887Z,4.30
2018-03-31T16:17:04.067Z,4.20
2018-03-31T16:19:30.471Z,4.10
2018-03-31T16:21:57.554Z,4.00
2018-03-31T16:24:23.827Z,3.90
2018-03-31T16:26:50.143Z,3.90
2018-03-31T16:29:16.363Z,4.00
2018-03-31T16:31:42.559Z,4.00
2018-03-31T16:34:08.954Z,3.90
2018-03-31T16:36:35.182Z,3.80
2018-03-31T16:39:01.474Z,3.70
2018-03-31T16:41:27.829Z,3.70
2018-03-31T16:43:54.254Z,3.60
2018-03-31T16:46:20.550Z,3.70
2018-03-31T16:48:46.841Z,3.80
2018-03-31T16:51:13.028Z,3.70
2018-03-31T16:53:39.234Z,3.70
2018-03-31T16:56:05.729Z,3.60
2018-03-31T16:58:32.317Z,3.60
2018-03-31T17:00:58.554Z,3.60
2018-03-31T17:03:24.841Z,3.50
2018-03-31T17:05:52.317Z,3.40
2018-03-31T17:08:19.335Z,3.30
2018-03-31T17:10:46.120Z,3.30
2018-03-31T17:13:12.490Z,3.30
2018-03-31T17:15:39.549Z,3.10
2018-03-31T17:18:05.796Z,3.10
2018-03-31T17:20:32.750Z,2.90
2018-03-31T17:22:59.021Z,2.80
2018-03-31T17:25:25.289Z,2.90
2018-03-31T17:27:52.014Z,3.00
2018-03-31T17:30:18.502Z,2.90
2018-03-31T17:32:44.867Z,2.90
2018-03-31T17:35:11.122Z,2.90
2018-03-31T17:37:38.054Z,2.80
2018-03-31T17:40:04.294Z,2.80
2018-03-31T17:42:31.535Z,2.70
2018-03-31T17:44:57.749Z,2.80
2018-03-31T17:47:24.441Z,2.70
2018-03-31T17:49:51.468Z,2.60
2018-03-31T17:52:17.936Z,2.60
2018-03-31T17:54:44.280Z,2.60
2018-03-31T17:57:10.412Z,2.60
2018-03-31T17:59:36.790Z,2.60
2018-03-31T18:02:03.395Z,2.40
2018-03-31T18:04:29.596Z,2.40
2018-03-31T18:06:55.893Z,2.30
2018-03-31T18:09:22.982Z,2.20
2018-03-31T18:11:49.214Z,2.20
2018-03-31T18:14:15.447Z,2.10
2018-03-31T18:16:41.869Z,2.20
2018-03-31T18:19:08.845Z,2.10
2018-03-31T18:21:35.077Z,2.10
2018-03-31T18:24:01.382Z,2.00
2018-03-31T18:26:28.618Z,1.90
2018-03-31T18:28:55.818Z,1.90
2018-03-31T18:31:22.089Z,1.80
2018-03-31T18:33:49.006Z,1.70
2018-03-31T18:36:15.254Z,1.60
2018-03-31T18:38:42.220Z,1.50
2018-03-31T18:41:08.474Z,1.50
2018-03-31T18:43:34.621Z,1.40
2018-03-31T18:46:00.990Z,1.40
2018-03-31T18:48:27.942Z,1.20
2018-03-31T18:50:54.199Z,1.20
2018-03-31T18:53:20.688Z,1.20
2018-03-31T18:55:46.956Z,1.20
2018-03-31T18:58:13.240Z,1.20
2018-03-31T19:00:39.565Z,1.10
2018-03-31T19:03:05.954Z,1.00
2018-03-31T19:05:32.195Z,1.00
2018-03-31T19:07:59.157Z,0.90
2018-03-31T19:10:26.097Z,0.90
2018-03-31T19:12:52.330Z,0.90
2018-03-31T19:15:18.799Z,0.90
2018-03-31T19:17:45.061Z,0.90
2018-03-31T19:20:11.258Z,0.90
2018-03-31T19:22:37.785Z,0.80
2018-03-31T19:25:10.106Z,0.80
2018-03-31T19:27:36.398Z,0.70
2018-03-31T19:30:02.784Z,0.70
2018-03-31T19:32:29.827Z,0.70
2018-03-31T19:34:56.040Z,0.70
2018-03-31T19:37:22.583Z,0.60
2018-03-31T19:39:49.800Z,0.60
2018-03-31T19:42:16.936Z,0.50
2018-03-31T19:44:43.689Z,0.50
2018-03-31T19:47:10.722Z,0.50
2018-03-31T19:49:37.073Z,0.50
2018-03-31T19:52:03.329Z,0.50
2018-03-31T19:54:29.511Z,0.50
2018-03-31T19:56:55.689Z,0.50
2018-03-31T19:59:22.323Z,0.50
2018-03-31T20:01:48.696Z,0.50
2018-03-31T20:04:15.057Z,0.50
2018-03-31T20:06:41.585Z,0.40
2018-03-31T20:09:07.770Z,0.30
2018-03-31T20:11:33.974Z,0.30
2018-03-31T20:14:00.280Z,0.40
2018-03-31T20:16:26.556Z,0.40
2018-03-31T20:18:52.716Z,0.40
2018-03-31T20:21:18.933Z,0.40
2018-03-31T20:23:45.147Z,0.30
2018-03-31T20:26:11.383Z,0.30
2018-03-31T20:28:38.130Z,0.30
2018-03-31T20:31:04.294Z,0.30
2018-03-31T20:33:30.508Z,0.40
2018-03-31T20:35:56.910Z,0.30
2018-03-31T20:38:23.069Z,0.40
2018-03-31T20:40:49.366Z,0.40
2018-03-31T20:43:16.044Z,0.30
2018-03-31T20:45:42.544Z,0.40
2018-03-31T20:48:08.755Z,0.40
2018-03-31T20:50:35.527Z,0.40
2018-03-31T20:53:02.711Z,0.30
2018-03-31T20:55:29.155Z,0.30
2018-03-31T20:57:55.421Z,0.30
2018-03-31T21:00:22.270Z,0.20
2018-03-31T21:02:48.565Z,0.20
2018-03-31T21:05:16.034Z,0.20
2018-03-31T21:07:42.352Z,0.20
2018-03-31T21:10:08.613Z,0.20
2018-03-31T21:12:35.069Z,0.20
2018-03-31T21:15:01.305Z,0.20
2018-03-31T21:17:28.315Z,0.20
2018-03-31T21:19:54.612Z,0.20
2018-03-31T21:22:20.873Z,0.10
2018-03-31T21:24:47.067Z,0.10
2018-03-31T21:27:13.541Z,0.00
2018-03-31T21:29:39.802Z,0.00
2018-03-31T21:32:06.138Z,0.10
2018-03-31T21:34:33.025Z,0.20
2018-03-31T21:36:59.240Z,0.20
2018-03-31T21:39:25.502Z,0.10
2018-03-31T21:41:51.934Z,0.10
2018-03-31T21:44:18.261Z,0.20
2018-03-31T21:46:45.264Z,0.10
2018-03-31T21:49:11.805Z,0.10
2018-03-31T21:51:38.007Z,0.10
2018-03-31T21:54:04.236Z,0.10
2018-03-31T21:56:30.666Z,0.00
2018-03-31T21:58:56.876Z,0.10
2018-03-31T22:01:23.064Z,0.10
2018-03-31T22:03:49.297Z,0.00
2018-03-31T22:06:16.235Z,-0.10
2018-03-31T22:08:43.193Z,-0.10
2018-03-31T22:11:09.544Z,-0.10
2018-03-31T22:13:41.884Z,0.00
2018-03-31T22:16:08.120Z,0.00
2018-03-31T22:18:34.412Z,0.00
2018-03-31T22:21:00.837Z,-0.10
2018-03-31T22:23:27.100Z,-0.10
2018-03-31T22:25:53.332Z,-0.10
2018-03-31T22:28:19.534Z,-0.20
2018-03-31T22:30:46.609Z,-0.10
2018-03-31T22:33:13.932Z,-0.10
2018-03-31T22:35:40.137Z,-0.10
2018-03-31T22:38:06.329Z,-0.10
2018-03-31T22:40:33.417Z,-0.10
2018-03-31T22:42:59.682Z,-0.10
2018-03-31T22:45:26.866Z,-0.20
2018-03-31T22:47:53.160Z,-0.20
2018-03-31T22:50:19.376Z,-0.20
2018-03-31T22:52:45.607Z,-0.30
2018-03-31T22:55:11.990Z,-0.30
2018-03-31T22:57:38.162Z,-0.30
2018-03-31T23:00:04.317Z,-0.30
2018-03-31T23:02:30.842Z,-0.30
2018-03-31T23:04:57.026Z,-0.40
2018-03-31T23:07:23.222Z,-0.40
2018-03-31T23:09:49.647Z,-0.40
2018-03-31T23:12:15.797Z,-0.50
2018-03-31T23:14:42.025Z,-0.50
2018-03-31T23:17:08.314Z,-0.50
2018-03-31T23:19:34.533Z,-0.50
2018-03-31T23:22:00.703Z,-0.50
2018-03-31T23:24:26.944Z,-0.50
2018-03-31T23:26:53.205Z,-0.50
2018-03-31T23:29:19.415Z,-0.50
2018-03-31T23:31:45.851Z,-0.60
2018-03-31T23:34:12.050Z,-0.60
2018-03-31T23:36:38.239Z,-0.60
2018-03-31T23:39:04.885Z,-0.70
2018-03-31T23:41:31.101Z,-0.60
2018-03-31T23:43:57.317Z,-0.60
2018-03-31T23:46:23.832Z,-0.60
2018-03-31T23:48:50.093Z,-0.60
2018-03-31T23:51:16.253Z,-0.60
2018-03-31T23:53:43.292Z,-0.70
2018-03-31T23:56:09.472Z,-0.70
2018-03-31T23:58:35.659Z,-0.70
